createdAt,value
2018-03-09T00:00:18.293Z,991.58
2018-03-09T00:01:19.683Z,991.56
2018-03-09T00:02:21.059Z,991.55
2018-03-09T00:03:22.451Z,991.58
2018-03-09T00:04:23.826Z,991.56
2018-03-09T00:05:25.225Z,991.55
2018-03-09T00:06:26.611Z,991.56
2018-03-09T00:07:28.001Z,991.45
2018-03-09T00:08:29.343Z,991.51
2018-03-09T00:09:30.754Z,991.54
2018-03-09T00:10:32.131Z,991.51
2018-03-09T00:11:33.521Z,991.52
2018-03-09T00:12:34.896Z,991.53
2018-03-09T00:13:36.284Z,991.50
2018-03-09T00:14:37.644Z,991.54
2018-03-09T00:15:39.029Z,991.56
2018-03-09T00:16:40.437Z,991.55
2018-03-09T00:17:41.807Z,991.52
2018-03-09T00:18:43.182Z,991.58
2018-03-09T00:19:44.566Z,991.53
2018-03-09T00:20:46.003Z,991.57
2018-03-09T00:21:47.383Z,991.59
2018-03-09T00:22:48.761Z,991.58
2018-03-09T00:23:50.143Z,991.57
2018-03-09T00:24:51.514Z,991.52
2018-03-09T00:25:52.885Z,991.64
2018-03-09T00:26:54.271Z,991.61
2018-03-09T00:27:55.653Z,991.57
2018-03-09T00:28:57.021Z,991.60
2018-03-09T00:29:58.395Z,991.62
2018-03-09T00:30:59.815Z,991.59
2018-03-09T00:32:01.189Z,991.64
2018-03-09T00:33:02.570Z,991.65
2018-03-09T00:34:04.847Z,991.63
2018-03-09T00:35:06.224Z,991.64
2018-03-09T00:36:07.602Z,991.61
2018-03-09T00:37:08.974Z,991.62
2018-03-09T00:38:10.348Z,991.62
2018-03-09T00:39:11.726Z,991.64
2018-03-09T00:40:13.106Z,991.61
2018-03-09T00:41:14.474Z,991.63
2018-03-09T00:42:15.886Z,991.63
2018-03-09T00:43:17.260Z,991.64
2018-03-09T00:44:18.642Z,991.59
2018-03-09T00:45:20.030Z,991.58
2018-03-09T00:46:21.414Z,991.60
2018-03-09T00:47:22.786Z,991.60
2018-03-09T00:48:25.007Z,991.58
2018-03-09T00:49:26.375Z,991.61
2018-03-09T00:50:27.755Z,991.60
2018-03-09T00:51:29.139Z,991.58
2018-03-09T00:52:30.522Z,991.59
2018-03-09T00:53:31.896Z,991.63
2018-03-09T00:54:33.285Z,991.62
2018-03-09T00:55:34.655Z,991.59
2018-03-09T00:56:36.033Z,991.61
2018-03-09T00:57:37.417Z,991.57
2018-03-09T00:58:38.796Z,991.56
2018-03-09T00:59:40.170Z,991.59
2018-03-09T01:00:41.545Z,991.61
2018-03-09T01:01:42.924Z,991.62
2018-03-09T01:02:44.293Z,991.62
2018-03-09T01:03:45.674Z,991.58
2018-03-09T01:04:47.042Z,991.58
2018-03-09T01:05:48.418Z,991.58
2018-03-09T01:06:50.538Z,991.59
2018-03-09T01:07:51.928Z,991.55
2018-03-09T01:08:53.306Z,991.57
2018-03-09T01:09:54.685Z,991.54
2018-03-09T01:10:56.876Z,991.55
2018-03-09T01:11:58.257Z,991.47
2018-03-09T01:12:59.626Z,991.47
2018-03-09T01:14:01.025Z,991.55
2018-03-09T01:15:02.404Z,991.42
2018-03-09T01:16:03.788Z,991.47
2018-03-09T01:17:05.162Z,991.52
2018-03-09T01:18:06.530Z,991.52
2018-03-09T01:19:07.914Z,991.50
2018-03-09T01:20:09.291Z,991.50
2018-03-09T01:21:10.664Z,991.49
2018-03-09T01:22:12.060Z,991.51
2018-03-09T01:23:13.412Z,991.49
2018-03-09T01:24:14.787Z,991.51
2018-03-09T01:25:16.173Z,991.56
2018-03-09T01:26:17.531Z,991.51
2018-03-09T01:27:18.940Z,991.47
2018-03-09T01:28:20.318Z,991.53
2018-03-09T01:29:21.707Z,991.49
2018-03-09T01:30:23.079Z,991.54
2018-03-09T01:31:24.464Z,991.48
2018-03-09T01:32:25.831Z,991.48
2018-03-09T01:33:27.208Z,991.49
2018-03-09T01:34:28.587Z,991.49
2018-03-09T01:35:29.962Z,991.53
2018-03-09T01:36:31.334Z,991.52
2018-03-09T01:37:33.300Z,991.56
2018-03-09T01:38:34.669Z,991.51
2018-03-09T01:39:36.056Z,991.49
2018-03-09T01:40:37.433Z,991.54
2018-03-09T01:41:38.807Z,991.52
2018-03-09T01:42:40.190Z,991.54
2018-03-09T01:43:41.563Z,991.53
2018-03-09T01:44:42.940Z,991.49
2018-03-09T01:45:44.318Z,991.51
2018-03-09T01:46:45.700Z,991.51
2018-03-09T01:47:47.066Z,991.54
2018-03-09T01:48:48.438Z,991.51
2018-03-09T01:49:49.816Z,991.53
2018-03-09T01:50:51.194Z,991.50
2018-03-09T01:51:52.572Z,991.49
2018-03-09T01:52:53.943Z,991.53
2018-03-09T01:53:55.328Z,991.51
2018-03-09T01:54:56.695Z,991.45
2018-03-09T01:55:58.068Z,991.47
2018-03-09T01:56:59.452Z,991.49
2018-03-09T01:58:00.827Z,991.47
2018-03-09T01:59:02.200Z,991.50
2018-03-09T02:00:03.595Z,991.49
2018-03-09T02:01:04.952Z,991.50
2018-03-09T02:02:06.319Z,991.51
2018-03-09T02:03:07.700Z,991.44
2018-03-09T02:04:09.075Z,991.48
2018-03-09T02:05:10.464Z,991.48
2018-03-09T02:06:11.821Z,991.49
2018-03-09T02:07:13.659Z,991.47
2018-03-09T02:08:15.039Z,991.44
2018-03-09T02:09:16.407Z,991.48
2018-03-09T02:10:17.794Z,991.45
2018-03-09T02:11:19.172Z,991.53
2018-03-09T02:12:20.546Z,991.48
2018-03-09T02:13:21.942Z,991.45
2018-03-09T02:14:23.318Z,991.43
2018-03-09T02:15:25.458Z,991.41
2018-03-09T02:16:26.008Z,991.40
2018-03-09T02:17:27.382Z,991.40
2018-03-09T02:18:28.761Z,991.44
2018-03-09T02:19:30.136Z,991.39
2018-03-09T02:20:31.508Z,991.40
2018-03-09T02:21:32.879Z,991.39
2018-03-09T02:22:34.276Z,991.44
2018-03-09T02:23:35.650Z,991.42
2018-03-09T02:24:37.025Z,991.44
2018-03-09T02:25:38.395Z,991.45
2018-03-09T02:26:39.772Z,991.41
2018-03-09T02:27:41.147Z,991.41
2018-03-09T02:28:43.073Z,991.45
2018-03-09T02:29:44.415Z,991.45
2018-03-09T02:30:45.798Z,991.44
2018-03-09T02:31:47.159Z,991.46
2018-03-09T02:32:48.552Z,991.45
2018-03-09T02:33:49.931Z,991.40
2018-03-09T02:34:51.320Z,991.46
2018-03-09T02:35:52.695Z,991.44
2018-03-09T02:36:54.079Z,991.38
2018-03-09T02:37:55.454Z,991.42
2018-03-09T02:38:56.832Z,991.45
2018-03-09T02:39:58.222Z,991.50
2018-03-09T02:40:59.604Z,991.48
2018-03-09T02:42:01.559Z,991.50
2018-03-09T02:43:02.959Z,991.53
2018-03-09T02:44:04.320Z,991.48
2018-03-09T02:45:05.691Z,991.46
2018-03-09T02:46:07.069Z,991.46
2018-03-09T02:47:08.454Z,991.46
2018-03-09T02:48:09.842Z,991.49
2018-03-09T02:49:11.223Z,991.48
2018-03-09T02:50:12.600Z,991.44
2018-03-09T02:51:13.966Z,991.46
2018-03-09T02:52:15.347Z,991.43
2018-03-09T02:53:16.725Z,991.45
2018-03-09T02:54:18.109Z,991.44
2018-03-09T02:55:19.466Z,991.47
2018-03-09T02:56:20.860Z,991.46
2018-03-09T02:57:22.215Z,991.47
2018-03-09T02:58:24.531Z,991.51
2018-03-09T02:59:25.939Z,991.51
2018-03-09T03:00:27.344Z,991.52
2018-03-09T03:01:28.722Z,991.50
2018-03-09T03:02:30.162Z,991.57
2018-03-09T03:03:31.555Z,991.52
2018-03-09T03:04:32.936Z,991.52
2018-03-09T03:05:34.326Z,991.51
2018-03-09T03:06:35.700Z,991.49
2018-03-09T03:07:37.062Z,991.53
2018-03-09T03:08:38.440Z,991.52
2018-03-09T03:09:39.815Z,991.52
2018-03-09T03:10:41.175Z,991.51
2018-03-09T03:11:42.557Z,991.51
2018-03-09T03:12:43.934Z,991.53
2018-03-09T03:13:45.306Z,991.59
2018-03-09T03:14:46.689Z,991.58
2018-03-09T03:15:48.059Z,991.50
2018-03-09T03:16:49.437Z,991.53
2018-03-09T03:17:50.801Z,991.56
2018-03-09T03:18:52.184Z,991.56
2018-03-09T03:19:53.567Z,991.53
2018-03-09T03:20:54.943Z,991.54
2018-03-09T03:21:56.317Z,991.54
2018-03-09T03:22:57.691Z,991.55
2018-03-09T03:23:59.063Z,991.54
2018-03-09T03:25:00.467Z,991.47
2018-03-09T03:26:01.846Z,991.52
2018-03-09T03:27:03.200Z,991.53
2018-03-09T03:28:04.586Z,991.56
2018-03-09T03:29:05.964Z,991.57
2018-03-09T03:30:08.000Z,991.62
2018-03-09T03:31:09.365Z,991.63
2018-03-09T03:32:10.755Z,991.61
2018-03-09T03:33:12.140Z,991.61
2018-03-09T03:34:13.514Z,991.61
2018-03-09T03:35:14.884Z,991.63
2018-03-09T03:36:16.282Z,991.61
2018-03-09T03:37:17.652Z,991.58
2018-03-09T03:38:19.034Z,991.61
2018-03-09T03:39:20.405Z,991.62
2018-03-09T03:40:21.770Z,991.66
2018-03-09T03:41:23.162Z,991.59
2018-03-09T03:42:24.541Z,991.69
2018-03-09T03:43:25.915Z,991.71
2018-03-09T03:44:27.287Z,991.71
2018-03-09T03:45:28.663Z,991.67
2018-03-09T03:46:30.032Z,991.68
2018-03-09T03:47:31.415Z,991.64
2018-03-09T03:48:32.782Z,991.64
2018-03-09T03:49:34.160Z,991.64
2018-03-09T03:50:35.554Z,991.72
2018-03-09T03:51:36.922Z,991.66
2018-03-09T03:52:38.304Z,991.71
2018-03-09T03:53:39.680Z,991.62
2018-03-09T03:54:41.080Z,991.70
2018-03-09T03:55:42.448Z,991.76
2018-03-09T03:56:43.839Z,991.71
2018-03-09T03:57:45.208Z,991.71
2018-03-09T03:58:46.574Z,991.76
2018-03-09T03:59:47.953Z,991.66
2018-03-09T04:00:49.338Z,991.70
2018-03-09T04:01:51.446Z,991.63
2018-03-09T04:02:52.828Z,991.66
2018-03-09T04:03:54.204Z,991.72
2018-03-09T04:04:55.593Z,991.68
2018-03-09T04:05:56.965Z,991.72
2018-03-09T04:06:58.343Z,991.81
2018-03-09T04:07:59.725Z,991.79
2018-03-09T04:09:01.104Z,991.80
2018-03-09T04:10:02.488Z,991.74
2018-03-09T04:11:03.853Z,991.70
2018-03-09T04:12:05.254Z,991.67
2018-03-09T04:13:06.616Z,991.80
2018-03-09T04:14:08.018Z,991.71
2018-03-09T04:15:09.401Z,991.75
2018-03-09T04:16:10.778Z,991.70
2018-03-09T04:17:12.202Z,991.73
2018-03-09T04:18:13.574Z,991.80
2018-03-09T04:19:14.964Z,991.76
2018-03-09T04:20:16.356Z,991.78
2018-03-09T04:21:17.738Z,991.75
2018-03-09T04:22:19.108Z,991.78
2018-03-09T04:23:20.498Z,991.79
2018-03-09T04:24:21.881Z,991.77
2018-03-09T04:25:23.270Z,991.81
2018-03-09T04:26:24.643Z,991.81
2018-03-09T04:27:26.023Z,991.84
2018-03-09T04:28:27.417Z,991.78
2018-03-09T04:29:28.795Z,991.88
2018-03-09T04:30:30.202Z,991.80
2018-03-09T04:31:31.561Z,991.84
2018-03-09T04:32:32.953Z,991.91
2018-03-09T04:33:34.339Z,991.87
2018-03-09T04:34:35.729Z,991.80
2018-03-09T04:35:37.099Z,991.78
2018-03-09T04:36:38.492Z,991.82
2018-03-09T04:37:39.868Z,991.86
2018-03-09T04:38:41.229Z,991.86
2018-03-09T04:39:42.623Z,991.82
2018-03-09T04:40:44.026Z,991.93
2018-03-09T04:41:45.443Z,991.92
2018-03-09T04:42:46.830Z,991.92
2018-03-09T04:43:48.210Z,991.93
2018-03-09T04:44:49.584Z,991.97
2018-03-09T04:45:50.987Z,991.95
2018-03-09T04:46:52.364Z,991.97
2018-03-09T04:47:53.751Z,991.98
2018-03-09T04:48:55.133Z,991.95
2018-03-09T04:49:57.340Z,992.02
2018-03-09T04:50:58.728Z,991.96
2018-03-09T04:52:00.107Z,992.02
2018-03-09T04:53:01.471Z,991.94
2018-03-09T04:54:02.869Z,992.00
2018-03-09T04:55:04.254Z,991.99
2018-03-09T04:56:05.634Z,992.03
2018-03-09T04:57:06.997Z,992.03
2018-03-09T04:58:08.368Z,992.02
2018-03-09T04:59:09.752Z,992.05
2018-03-09T05:00:11.146Z,992.09
2018-03-09T05:01:12.509Z,992.08
2018-03-09T05:02:13.891Z,992.10
2018-03-09T05:03:15.265Z,992.06
2018-03-09T05:04:16.667Z,992.19
2018-03-09T05:05:18.035Z,992.22
2018-03-09T05:06:19.419Z,992.17
2018-03-09T05:07:20.795Z,992.20
2018-03-09T05:08:22.179Z,992.18
2018-03-09T05:09:23.559Z,992.28
2018-03-09T05:10:24.992Z,992.30
2018-03-09T05:11:26.333Z,992.40
2018-03-09T05:12:27.713Z,992.37
2018-03-09T05:13:29.080Z,992.36
2018-03-09T05:14:30.461Z,992.45
2018-03-09T05:15:31.836Z,992.45
2018-03-09T05:16:33.210Z,992.48
2018-03-09T05:17:34.608Z,992.52
2018-03-09T05:18:35.998Z,992.48
2018-03-09T05:19:37.387Z,992.51
2018-03-09T05:20:38.769Z,992.54
2018-03-09T05:21:40.150Z,992.54
2018-03-09T05:22:41.529Z,992.58
2018-03-09T05:23:42.915Z,992.58
2018-03-09T05:24:44.291Z,992.56
2018-03-09T05:25:45.663Z,992.53
2018-03-09T05:26:47.185Z,992.59
2018-03-09T05:27:48.575Z,992.58
2018-03-09T05:28:49.961Z,992.65
2018-03-09T05:29:51.361Z,992.70
2018-03-09T05:30:52.780Z,992.76
2018-03-09T05:31:54.133Z,992.89
2018-03-09T05:32:55.501Z,992.90
2018-03-09T05:33:56.874Z,992.91
2018-03-09T05:34:58.265Z,992.90
2018-03-09T05:35:59.652Z,992.88
2018-03-09T05:37:01.013Z,992.77
2018-03-09T05:38:02.392Z,992.92
2018-03-09T05:39:03.768Z,992.91
2018-03-09T05:40:05.148Z,992.86
2018-03-09T05:41:06.538Z,993.01
2018-03-09T05:42:07.904Z,992.95
2018-03-09T05:43:09.288Z,992.89
2018-03-09T05:44:10.658Z,992.85
2018-03-09T05:45:12.061Z,992.87
2018-03-09T05:46:13.422Z,992.88
2018-03-09T05:47:14.808Z,992.90
2018-03-09T05:48:16.185Z,992.95
2018-03-09T05:49:17.559Z,993.02
2018-03-09T05:50:18.935Z,992.99
2018-03-09T05:51:20.326Z,992.96
2018-03-09T05:52:21.701Z,993.03
2018-03-09T05:53:23.076Z,993.03
2018-03-09T05:54:24.440Z,993.02
2018-03-09T05:55:25.820Z,992.97
2018-03-09T05:56:27.201Z,992.94
2018-03-09T05:57:28.571Z,993.03
2018-03-09T05:58:29.955Z,993.02
2018-03-09T05:59:31.328Z,993.00
2018-03-09T06:00:32.703Z,993.03
2018-03-09T06:01:34.084Z,993.08
2018-03-09T06:02:35.463Z,993.08
2018-03-09T06:03:36.836Z,993.12
2018-03-09T06:04:38.215Z,993.14
2018-03-09T06:05:39.599Z,993.21
2018-03-09T06:06:40.973Z,993.18
2018-03-09T06:07:42.341Z,993.16
2018-03-09T06:08:43.723Z,993.19
2018-03-09T06:09:45.099Z,993.18
2018-03-09T06:10:46.507Z,993.19
2018-03-09T06:11:47.850Z,993.25
2018-03-09T06:12:49.236Z,993.26
2018-03-09T06:13:51.292Z,993.27
2018-03-09T06:14:52.671Z,993.27
2018-03-09T06:15:54.060Z,993.24
2018-03-09T06:16:55.422Z,993.31
2018-03-09T06:17:56.812Z,993.28
2018-03-09T06:18:58.186Z,993.29
2018-03-09T06:19:59.564Z,993.31
2018-03-09T06:21:00.988Z,993.33
2018-03-09T06:22:02.312Z,993.30
2018-03-09T06:23:03.734Z,993.29
2018-03-09T06:24:05.066Z,993.37
2018-03-09T06:25:06.436Z,993.29
2018-03-09T06:26:07.823Z,993.37
2018-03-09T06:27:09.197Z,993.32
2018-03-09T06:28:10.571Z,993.38
2018-03-09T06:29:11.960Z,993.33
2018-03-09T06:30:13.333Z,993.31
2018-03-09T06:31:14.707Z,993.36
2018-03-09T06:32:16.084Z,993.36
2018-03-09T06:33:17.486Z,993.36
2018-03-09T06:34:18.867Z,993.39
2018-03-09T06:35:20.246Z,993.36
2018-03-09T06:36:21.625Z,993.44
2018-03-09T06:37:23.028Z,993.41
2018-03-09T06:38:24.406Z,993.40
2018-03-09T06:39:25.806Z,993.42
2018-03-09T06:40:27.199Z,993.50
2018-03-09T06:41:28.576Z,993.58
2018-03-09T06:42:30.680Z,993.54
2018-03-09T18:30:10.126Z,1000.33
2018-03-09T18:31:11.458Z,1000.31
2018-03-09T18:32:12.803Z,1000.38
2018-03-09T18:33:14.172Z,1000.39
2018-03-09T18:34:15.544Z,1000.38
2018-03-09T18:35:16.909Z,1000.40
2018-03-09T18:36:18.287Z,1000.40
2018-03-09T18:37:19.664Z,1000.39
2018-03-09T18:38:21.042Z,1000.33
2018-03-09T18:39:23.137Z,1000.37
2018-03-09T18:40:24.508Z,1000.35
2018-03-09T18:41:25.890Z,1000.35
2018-03-09T18:42:27.306Z,1000.34
2018-03-09T18:43:28.683Z,1000.31
2018-03-09T18:44:30.094Z,1000.31
2018-03-09T18:45:31.998Z,1000.27
2018-03-09T18:46:33.377Z,1000.30
2018-03-09T18:47:34.756Z,1000.31
2018-03-09T18:48:36.122Z,1000.34
2018-03-09T18:49:37.515Z,1000.35
2018-03-09T18:50:38.857Z,1000.36
2018-03-09T18:51:40.241Z,1000.39
2018-03-09T18:52:41.625Z,1000.40
2018-03-09T18:53:43.007Z,1000.41
2018-03-09T18:54:44.386Z,1000.49
2018-03-09T18:55:45.801Z,1000.54
2018-03-09T18:56:47.199Z,1000.51
2018-03-09T18:57:48.576Z,1000.50
2018-03-09T18:58:50.555Z,1000.52
2018-03-09T18:59:51.922Z,1000.49
2018-03-09T19:00:53.286Z,1000.49
2018-03-09T19:01:54.678Z,1000.50
2018-03-09T19:02:56.065Z,1000.48
2018-03-09T19:03:57.455Z,1000.51
2018-03-09T19:04:58.836Z,1000.49
2018-03-09T19:06:00.222Z,1000.47
2018-03-09T19:07:01.613Z,1000.47
2018-03-09T19:08:02.995Z,1000.52
2018-03-09T19:09:04.869Z,1000.47
2018-03-09T19:10:06.272Z,1000.47
2018-03-09T19:11:07.649Z,1000.52
2018-03-09T19:12:09.043Z,1000.52
2018-03-09T19:13:10.430Z,1000.49
2018-03-09T19:14:11.828Z,1000.53
2018-03-09T19:15:13.201Z,1000.54
2018-03-09T19:16:14.575Z,1000.57
2018-03-09T19:17:15.976Z,1000.58
2018-03-09T19:18:17.359Z,1000.57
2018-03-09T19:19:18.718Z,1000.57
2018-03-09T19:20:20.104Z,1000.56
2018-03-09T19:21:21.517Z,1000.58
2018-03-09T19:22:22.907Z,1000.54
2018-03-09T19:23:24.318Z,1000.52
2018-03-09T19:24:26.341Z,1000.57
2018-03-09T19:25:27.780Z,1000.62
2018-03-09T19:26:30.095Z,1000.70
2018-03-09T19:27:32.218Z,1000.68
2018-03-09T19:28:33.694Z,1000.70
2018-03-09T19:29:35.123Z,1000.67
2018-03-09T19:30:36.636Z,1000.68
2018-03-09T19:31:38.034Z,1000.70
2018-03-09T19:32:39.548Z,1000.71
2018-03-09T19:33:41.771Z,1000.76
2018-03-09T19:34:43.190Z,1000.72
2018-03-09T19:35:44.612Z,1000.73
2018-03-09T19:36:46.032Z,1000.72
2018-03-09T19:37:47.766Z,1000.77
2018-03-09T19:38:49.379Z,1000.74
2018-03-09T19:39:50.996Z,1000.72
2018-03-09T19:40:52.407Z,1000.74
2018-03-09T19:41:53.842Z,1000.75
2018-03-09T19:42:55.209Z,1000.77
2018-03-09T19:43:56.729Z,1000.75
2018-03-09T19:44:59.236Z,1000.78
2018-03-09T19:46:00.641Z,1000.77
2018-03-09T19:47:03.093Z,1000.77
2018-03-09T19:48:04.477Z,1000.82
2018-03-09T19:49:05.980Z,1000.77
2018-03-09T19:50:07.491Z,1000.79
2018-03-09T19:51:09.435Z,1000.79
2018-03-09T19:52:10.921Z,1000.80
2018-03-09T19:53:12.402Z,1000.79
2018-03-09T19:54:13.890Z,1000.78
2018-03-09T19:55:15.405Z,1000.80
2018-03-09T19:56:16.898Z,1000.81
2018-03-09T19:57:18.415Z,1000.77
2018-03-09T19:58:19.969Z,1000.80
2018-03-09T19:59:21.528Z,1000.79
2018-03-09T20:00:23.047Z,1000.80
2018-03-09T20:01:24.491Z,1000.79
2018-03-09T20:02:25.941Z,1000.76
2018-03-09T20:03:27.347Z,1000.84
2018-03-09T20:04:28.838Z,1000.82
2018-03-09T20:05:31.046Z,1000.81
2018-03-09T20:06:32.517Z,1000.78
2018-03-09T20:07:33.966Z,1000.85
2018-03-09T20:08:36.333Z,1000.83
2018-03-09T20:09:37.751Z,1000.86
2018-03-09T20:10:39.219Z,1000.88
2018-03-09T20:11:42.537Z,1000.91
2018-03-09T20:12:43.953Z,1000.88
2018-03-09T20:13:45.921Z,1000.85
2018-03-09T20:14:47.371Z,1000.86
2018-03-09T20:15:48.852Z,1000.86
2018-03-09T20:16:51.174Z,1000.82
2018-03-09T20:17:51.717Z,1000.85
2018-03-09T20:18:53.256Z,1000.82
2018-03-09T20:19:54.824Z,1000.87
2018-03-09T20:20:56.369Z,1000.87
2018-03-09T20:21:57.935Z,1000.85
2018-03-09T20:22:59.516Z,1000.86
2018-03-09T20:24:00.948Z,1000.82
2018-03-09T20:25:02.531Z,1000.79
2018-03-09T20:26:03.925Z,1000.80
2018-03-09T20:27:05.312Z,1000.80
2018-03-09T20:28:08.177Z,1000.86
2018-03-09T20:29:08.188Z,1000.84
2018-03-09T20:30:09.664Z,1000.82
2018-03-09T20:31:12.615Z,1000.83
2018-03-09T20:32:14.124Z,1000.86
2018-03-09T20:33:15.700Z,1000.89
2018-03-09T20:34:17.163Z,1000.89
2018-03-09T20:35:18.636Z,1000.88
2018-03-09T20:36:21.108Z,1000.85
2018-03-09T20:37:24.221Z,1000.83
2018-03-09T20:38:25.657Z,1000.85
2018-03-09T20:39:27.045Z,1000.82
2018-03-09T20:40:28.469Z,1000.84
2018-03-09T20:41:29.993Z,1000.87
2018-03-09T20:42:31.441Z,1000.86
2018-03-09T20:43:33.685Z,1000.85
2018-03-09T20:44:35.104Z,1000.84
2018-03-09T20:45:37.198Z,1000.80
2018-03-09T20:46:38.721Z,1000.82
2018-03-09T20:47:41.092Z,1000.84
2018-03-09T20:48:42.548Z,1000.83
2018-03-09T20:49:43.917Z,1000.80
2018-03-09T20:50:45.331Z,1000.79
2018-03-09T20:51:46.819Z,1000.82
2018-03-09T20:52:49.128Z,1000.82
2018-03-09T20:53:50.561Z,1000.82
2018-03-09T20:54:52.808Z,1000.83
2018-03-09T20:55:54.823Z,1000.88
2018-03-09T20:56:56.205Z,1000.84
2018-03-09T20:57:57.715Z,1000.86
2018-03-09T20:58:59.315Z,1000.85
2018-03-09T21:00:00.812Z,1000.84
2018-03-09T21:01:02.319Z,1000.88
2018-03-09T21:02:03.708Z,1000.87
2018-03-09T21:03:05.152Z,1000.90
2018-03-09T21:04:06.532Z,1000.86
2018-03-09T21:05:07.905Z,1000.89
2018-03-09T21:06:09.883Z,1000.89
2018-03-09T21:07:11.288Z,1000.87
2018-03-09T21:08:12.703Z,1000.90
2018-03-09T21:09:14.102Z,1000.85
2018-03-09T21:10:16.302Z,1000.88
2018-03-09T21:11:17.698Z,1000.89
2018-03-09T21:12:19.043Z,1000.86
2018-03-09T21:13:22.130Z,1000.85
2018-03-09T21:14:23.538Z,1000.85
2018-03-09T21:15:24.937Z,1000.88
2018-03-09T21:16:26.367Z,1000.85
2018-03-09T21:17:27.748Z,1000.84
2018-03-09T21:18:30.178Z,1000.85
2018-03-09T21:19:31.361Z,1000.85
2018-03-09T21:20:32.731Z,1000.84
2018-03-09T21:21:34.119Z,1000.82
2018-03-09T21:22:35.517Z,1000.82
2018-03-09T21:23:37.879Z,1000.80
2018-03-09T21:24:39.274Z,1000.77
2018-03-09T21:25:40.663Z,1000.79
2018-03-09T21:26:42.068Z,1000.81
2018-03-09T21:27:43.490Z,1000.85
2018-03-09T21:28:44.919Z,1000.86
2018-03-09T21:29:46.307Z,1000.89
2018-03-09T21:30:47.750Z,1000.89
2018-03-09T21:31:49.854Z,1000.85
2018-03-09T21:32:51.238Z,1000.86
2018-03-09T21:33:52.607Z,1000.81
2018-03-09T21:34:54.897Z,1000.82
2018-03-09T21:35:56.313Z,1000.81
2018-03-09T21:36:57.698Z,1000.80
2018-03-09T21:37:59.100Z,1000.85
2018-03-09T21:39:00.471Z,1000.88
2018-03-09T21:40:01.854Z,1000.83
2018-03-09T21:41:03.230Z,1000.81
2018-03-09T21:42:04.620Z,1000.80
2018-03-09T21:43:06.001Z,1000.81
2018-03-09T21:44:07.338Z,1000.77
2018-03-09T21:45:08.732Z,1000.76
2018-03-09T21:46:10.115Z,1000.80
2018-03-09T21:47:11.489Z,1000.80
2018-03-09T21:48:12.875Z,1000.77
2018-03-09T21:49:14.246Z,1000.78
2018-03-09T21:50:15.631Z,1000.79
2018-03-09T21:51:16.996Z,1000.78
2018-03-09T21:52:18.373Z,1000.75
2018-03-09T21:53:19.758Z,1000.71
2018-03-09T21:54:21.142Z,1000.74
2018-03-09T21:55:22.516Z,1000.74
2018-03-09T21:56:23.900Z,1000.73
2018-03-09T21:57:25.272Z,1000.76
2018-03-09T21:58:26.645Z,1000.75
2018-03-09T21:59:28.038Z,1000.76
2018-03-09T22:00:29.399Z,1000.74
2018-03-09T22:01:30.786Z,1000.70
2018-03-09T22:02:32.158Z,1000.73
2018-03-09T22:03:33.535Z,1000.69
2018-03-09T22:04:34.872Z,1000.68
2018-03-09T22:05:36.258Z,1000.63
2018-03-09T22:06:37.597Z,1000.61
2018-03-09T22:07:38.983Z,1000.59
2018-03-09T22:08:40.318Z,1000.59
2018-03-09T22:09:41.703Z,1000.61
2018-03-09T22:10:43.081Z,1000.60
2018-03-09T22:11:44.417Z,1000.60
2018-03-09T22:12:45.792Z,1000.61
2018-03-09T22:13:47.172Z,1000.61
2018-03-09T22:14:48.545Z,1000.56
2018-03-09T22:15:49.931Z,1000.57
2018-03-09T22:16:51.287Z,1000.57
2018-03-09T22:17:52.664Z,1000.56
2018-03-09T22:18:54.052Z,1000.51
2018-03-09T22:19:55.387Z,1000.45
2018-03-09T22:20:56.774Z,1000.41
2018-03-09T22:21:58.149Z,1000.41
2018-03-09T22:22:59.515Z,1000.40
2018-03-09T22:24:00.861Z,1000.41
2018-03-09T22:25:02.225Z,1000.41
2018-03-09T22:26:03.599Z,1000.44
2018-03-09T22:27:04.932Z,1000.43
2018-03-09T22:28:06.298Z,1000.49
2018-03-09T22:29:07.669Z,1000.48
2018-03-09T22:30:09.057Z,1000.46
2018-03-09T22:31:10.435Z,1000.45
2018-03-09T22:32:11.841Z,1000.47
2018-03-09T22:33:13.765Z,1000.44
2018-03-09T22:34:15.101Z,1000.42
2018-03-09T22:35:16.480Z,1000.42
2018-03-09T22:36:17.813Z,1000.41
2018-03-09T22:37:19.196Z,1000.40
2018-03-09T22:38:20.567Z,1000.48
2018-03-09T22:39:21.942Z,1000.49
2018-03-09T22:40:23.280Z,1000.50
2018-03-09T22:41:24.639Z,1000.49
2018-03-09T22:42:26.022Z,1000.53
2018-03-09T22:43:27.387Z,1000.49
2018-03-09T22:44:28.786Z,1000.47
2018-03-09T22:45:30.168Z,1000.47
2018-03-09T22:46:31.536Z,1000.49
2018-03-09T22:47:32.908Z,1000.43
2018-03-09T22:48:35.175Z,1000.44
2018-03-09T22:49:35.805Z,1000.43
2018-03-09T22:50:37.176Z,1000.45
2018-03-09T22:51:38.619Z,1000.47
2018-03-09T22:52:40.563Z,1000.49
2018-03-09T22:53:41.937Z,1000.46
2018-03-09T22:54:43.485Z,1000.46
2018-03-09T22:55:44.887Z,1000.45
2018-03-09T22:56:46.253Z,1000.40
2018-03-09T22:57:47.634Z,1000.41
2018-03-09T22:58:48.996Z,1000.40
2018-03-09T22:59:50.388Z,1000.40
2018-03-09T23:00:51.767Z,1000.40
2018-03-09T23:01:53.133Z,1000.40
2018-03-09T23:02:54.631Z,1000.43
2018-03-09T23:03:56.005Z,1000.45
2018-03-09T23:04:57.376Z,1000.43
2018-03-09T23:05:59.389Z,1000.41
2018-03-09T23:07:00.756Z,1000.37
2018-03-09T23:08:02.145Z,1000.41
2018-03-09T23:09:03.509Z,1000.38
2018-03-09T23:10:04.836Z,1000.35
2018-03-09T23:11:06.520Z,1000.35
2018-03-09T23:12:07.901Z,1000.32
2018-03-09T23:13:09.274Z,1000.37
2018-03-09T23:14:10.672Z,1000.42
2018-03-09T23:15:12.030Z,1000.40
2018-03-09T23:16:13.449Z,1000.41
2018-03-09T23:17:14.832Z,1000.38
2018-03-09T23:18:16.193Z,1000.42
2018-03-09T23:19:17.577Z,1000.42
2018-03-09T23:20:18.987Z,1000.46
2018-03-09T23:21:20.355Z,1000.42
2018-03-09T23:22:21.830Z,1000.44
2018-03-09T23:23:23.220Z,1000.45
2018-03-09T23:24:24.643Z,1000.46
2018-03-09T23:25:26.027Z,1000.46
2018-03-09T23:26:27.395Z,1000.50
2018-03-09T23:27:28.774Z,1000.46
2018-03-09T23:28:31.088Z,1000.45
2018-03-09T23:29:32.464Z,1000.46
2018-03-09T23:30:33.848Z,1000.48
2018-03-09T23:31:35.211Z,1000.51
2018-03-09T23:32:36.592Z,1000.48
2018-03-09T23:33:37.971Z,1000.47
2018-03-09T23:34:39.335Z,1000.41
2018-03-09T23:35:40.711Z,1000.42
2018-03-09T23:36:42.092Z,1000.36
2018-03-09T23:37:43.461Z,1000.31
2018-03-09T23:38:44.832Z,1000.31
2018-03-09T23:39:46.171Z,1000.25
2018-03-09T23:40:47.930Z,1000.22
2018-03-09T23:41:49.306Z,1000.23
2018-03-09T23:42:50.685Z,1000.23
2018-03-09T23:43:52.050Z,1000.26
2018-03-09T23:44:53.420Z,1000.25
2018-03-09T23:45:54.863Z,1000.25
2018-03-09T23:46:56.237Z,1000.18
2018-03-09T23:47:57.617Z,1000.19
2018-03-09T23:48:59.700Z,1000.23
2018-03-09T23:50:01.452Z,1000.22
2018-03-09T23:51:02.858Z,1000.26
2018-03-09T23:52:04.225Z,1000.26
2018-03-09T23:53:05.611Z,1000.25
2018-03-09T23:54:06.978Z,1000.25
2018-03-09T23:55:08.351Z,1000.29
2018-03-09T23:56:09.717Z,1000.26
2018-03-09T23:57:11.890Z,1000.28
2018-03-09T23:58:13.266Z,1000.29
2018-03-09T23:59:14.650Z,1000.26
